Time;durP1;ratioP1;P1;durP2;ratioP2;P2;SDS_P1;SDS_P2;PMS_P1;PMS_P2;Temp;Humidity;BMP_temperature;BMP_pressure;BME280_temperature;BME280_humidity;BME280_pressure;Samples;Min_cycle;Max_cycle;Signal;HPM_P1;HPM_P2
2022/06/25 00:01:50;;;;;;;1.40;0.75;;;23.00;74.00;;;;;;5094252;28;20028;-73
2022/06/25 00:07:00;;;;;;;1.35;0.90;;;22.90;74.80;;;;;;5093498;28;20400;-72
2022/06/25 00:09:26;;;;;;;1.50;1.13;;;22.80;75.50;;;;;;5094293;28;20103;-73
2022/06/25 00:14:37;;;;;;;0.88;0.63;;;22.80;76.50;;;;;;5093751;28;20403;-73
2022/06/25 00:17:03;;;;;;;0.68;0.68;;;22.70;77.40;;;;;;5091765;28;20483;-72
2022/06/25 00:19:29;;;;;;;0.75;0.73;;;22.60;78.20;;;;;;5092845;28;20042;-72
2022/06/25 00:21:55;;;;;;;1.13;0.80;;;22.60;79.40;;;;;;5093220;28;20024;-72
2022/06/25 00:24:20;;;;;;;0.88;0.80;;;22.60;80.20;;;;;;5092958;28;20028;-72
2022/06/25 00:26:46;;;;;;;0.70;0.70;;;22.50;80.80;;;;;;5092671;28;20032;-73
2022/06/25 00:29:12;;;;;;;2.05;0.90;;;22.50;81.50;;;;;;5092523;28;20106;-72
2022/06/25 00:31:37;;;;;;;1.02;0.70;;;22.50;82.50;;;;;;5093424;28;20357;-72
2022/06/25 00:34:04;;;;;;;0.65;0.65;;;22.40;82.90;;;;;;5074882;28;20028;-72
2022/06/25 00:36:29;;;;;;;1.10;0.80;;;22.40;83.30;;;;;;5093451;28;20055;-72
2022/06/25 00:38:55;;;;;;;1.48;0.93;;;22.40;84.50;;;;;;5093244;28;20055;-73
2022/06/25 00:41:21;;;;;;;1.48;0.90;;;22.40;85.60;;;;;;5074743;28;20487;-73
2022/06/25 00:43:46;;;;;;;1.42;0.95;;;22.40;86.40;;;;;;5093386;28;20059;-72
2022/06/25 00:46:12;;;;;;;1.60;0.80;;;22.40;87.70;;;;;;5092568;28;20545;-72
2022/06/25 00:48:38;;;;;;;0.88;0.80;;;22.40;88.50;;;;;;5093016;28;20031;-73
2022/06/25 00:51:26;;;;;;;2.50;1.20;;;22.30;89.90;;;;;;5092779;28;20120;-73
2022/06/25 00:53:54;;;;;;;2.72;1.30;;;22.30;90.40;;;;;;5093252;28;20050;-73
2022/06/25 00:56:22;;;;;;;1.30;1.10;;;22.30;90.70;;;;;;5092762;28;20040;-73
2022/06/25 00:58:50;;;;;;;1.67;1.35;;;22.20;90.90;;;;;;5093238;28;20415;-73
2022/06/25 01:01:17;;;;;;;1.88;1.20;;;22.20;91.20;;;;;;5092699;28;20032;-73
2022/06/25 01:03:43;;;;;;;1.52;1.38;;;22.10;91.40;;;;;;5093117;28;20077;-73
2022/06/25 01:06:08;;;;;;;0.80;0.70;;;22.10;90.30;;;;;;5092747;28;20024;-73
2022/06/25 01:08:35;;;;;;;2.35;0.70;;;22.00;89.20;;;;;;5074860;28;20036;-73
2022/06/25 01:11:01;;;;;;;0.65;0.65;;;21.90;89.40;;;;;;5091730;28;20107;-73
2022/06/25 01:13:28;;;;;;;1.42;0.70;;;21.90;89.80;;;;;;5092889;28;20468;-73
2022/06/25 01:15:54;;;;;;;0.50;0.50;;;21.80;90.10;;;;;;5092709;28;20028;-73
2022/06/25 01:18:19;;;;;;;0.57;0.57;;;21.70;90.00;;;;;;5092426;28;20043;-72
2022/06/25 01:20:45;;;;;;;1.70;0.60;;;21.60;90.10;;;;;;5092918;28;20051;-72
2022/06/25 01:23:12;;;;;;;0.32;0.32;;;21.50;88.70;;;;;;5092463;28;20020;-73
2022/06/25 01:25:40;;;;;;;0.40;0.40;;;21.40;88.60;;;;;;5092731;28;20035;-72
2022/06/25 01:28:06;;;;;;;0.30;0.30;;;21.30;89.10;;;;;;5092108;28;20496;-73
2022/06/25 01:30:33;;;;;;;0.25;0.25;;;21.20;88.20;;;;;;5092656;28;20036;-73
2022/06/25 01:32:58;;;;;;;0.38;0.28;;;21.10;89.70;;;;;;5092635;28;20487;-72
2022/06/25 01:35:24;;;;;;;2.20;0.30;;;21.00;90.10;;;;;;5092254;28;20078;-73
2022/06/25 01:37:50;;;;;;;0.30;0.30;;;20.90;90.50;;;;;;5092176;28;20489;-72
2022/06/25 01:40:16;;;;;;;0.60;0.30;;;20.80;91.10;;;;;;5073956;28;20035;-73
2022/06/25 01:43:00;;;;;;;1.20;0.43;;;20.60;91.40;;;;;;5092414;28;20031;-73
2022/06/25 01:45:37;;;;;;;0.38;0.20;;;20.60;91.90;;;;;;5073651;28;20567;-72
2022/06/25 01:48:05;;;;;;;0.28;0.28;;;20.50;90.90;;;;;;5092017;28;20039;-73
2022/06/25 01:50:32;;;;;;;0.32;0.30;;;20.40;90.60;;;;;;5092472;28;20032;-73
2022/06/25 01:52:58;;;;;;;0.20;0.20;;;20.30;90.60;;;;;;5092034;28;20384;-73
2022/06/25 01:55:23;;;;;;;1.85;0.30;;;20.30;90.80;;;;;;5091263;28;20027;-73
2022/06/25 01:57:50;;;;;;;0.57;0.57;;;20.30;90.50;;;;;;5077384;28;20043;-73
2022/06/25 02:00:20;;;;;;;0.30;0.30;;;20.20;90.10;;;;;;5091477;28;20034;-73
2022/06/25 02:02:46;;;;;;;0.90;0.30;;;20.10;90.40;;;;;;5092290;28;20028;-73
2022/06/25 02:05:14;;;;;;;0.20;0.20;;;20.00;90.80;;;;;;5091745;28;20027;-73
2022/06/25 02:07:40;;;;;;;0.30;0.20;;;20.00;91.20;;;;;;5092518;28;20039;-73
2022/06/25 02:10:07;;;;;;;0.20;0.20;;;20.00;91.30;;;;;;5091757;28;20039;-73
2022/06/25 02:12:33;;;;;;;0.47;0.30;;;19.90;91.40;;;;;;5092523;28;20028;-73
2022/06/25 02:15:01;;;;;;;0.28;0.28;;;19.80;91.50;;;;;;5091944;28;20481;-73
2022/06/25 02:17:27;;;;;;;0.80;0.30;;;19.80;91.80;;;;;;5091592;28;20034;-73
2022/06/25 02:19:53;;;;;;;0.25;0.25;;;19.80;91.70;;;;;;5092144;28;20035;-73
2022/06/25 02:22:18;;;;;;;0.30;0.30;;;19.70;91.70;;;;;;5093459;28;20047;-73
2022/06/25 02:24:45;;;;;;;0.75;0.30;;;19.70;91.30;;;;;;5096253;28;20027;-73
2022/06/25 02:27:11;;;;;;;0.17;0.17;;;19.60;91.50;;;;;;5096035;28;20036;-73
2022/06/25 02:29:37;;;;;;;0.28;0.28;;;19.50;91.30;;;;;;5096111;28;20032;-72
2022/06/25 02:32:04;;;;;;;0.17;0.10;;;19.50;91.10;;;;;;5096128;28;20380;-73
2022/06/25 02:34:29;;;;;;;0.20;0.20;;;19.50;90.90;;;;;;5095798;28;20114;-73
2022/06/25 02:36:55;;;;;;;0.30;0.30;;;19.50;91.40;;;;;;5095769;28;20051;-74
2022/06/25 02:39:21;;;;;;;0.30;0.30;;;19.50;91.30;;;;;;5095579;28;20104;-73
2022/06/25 02:41:46;;;;;;;0.20;0.20;;;19.50;91.20;;;;;;5095765;28;20024;-72
2022/06/25 02:44:12;;;;;;;0.20;0.20;;;19.50;91.40;;;;;;5095520;28;20066;-72
2022/06/25 02:46:38;;;;;;;0.20;0.20;;;19.50;91.30;;;;;;5095474;28;20044;-73
2022/06/25 02:49:03;;;;;;;0.10;0.10;;;19.50;91.00;;;;;;5095848;28;20479;-73
2022/06/25 02:51:29;;;;;;;0.30;0.30;;;19.50;91.20;;;;;;5095466;28;20025;-73
2022/06/25 02:53:55;;;;;;;0.20;0.20;;;19.50;91.00;;;;;;5095847;28;20024;-73
2022/06/25 02:59:06;;;;;;;0.20;0.20;;;19.50;90.70;;;;;;5095727;28;20123;-72
2022/06/25 03:01:32;;;;;;;0.10;0.10;;;19.50;90.20;;;;;;5095491;28;20131;-72
2022/06/25 03:03:58;;;;;;;0.20;0.20;;;19.50;90.00;;;;;;5095174;28;20485;-73
2022/06/25 03:06:24;;;;;;;0.20;0.20;;;19.50;90.20;;;;;;5094991;28;20051;-72
2022/06/25 03:08:51;;;;;;;0.20;0.20;;;19.50;90.00;;;;;;5095392;28;20024;-71
2022/06/25 03:11:17;;;;;;;0.20;0.20;;;19.40;89.70;;;;;;5094826;28;20442;-71
2022/06/25 03:13:43;;;;;;;0.30;0.30;;;19.40;90.00;;;;;;5095043;28;20035;-72
2022/06/25 03:16:09;;;;;;;0.28;0.28;;;19.40;90.00;;;;;;5094649;28;20024;-72
2022/06/25 03:18:35;;;;;;;0.10;0.10;;;19.40;90.20;;;;;;5095029;28;20441;-72
2022/06/25 03:21:01;;;;;;;0.68;0.20;;;19.40;90.70;;;;;;5095032;28;20107;-73
2022/06/25 03:23:27;;;;;;;1.88;0.20;;;19.40;90.70;;;;;;5094413;28;20091;-72
2022/06/25 03:25:53;;;;;;;0.28;0.20;;;19.30;90.60;;;;;;5094619;28;20158;-72
2022/06/25 03:28:19;;;;;;;1.88;0.50;;;19.30;90.70;;;;;;5094118;28;20044;-72
2022/06/25 03:30:45;;;;;;;0.20;0.20;;;19.30;90.80;;;;;;5094828;28;20380;-72
2022/06/25 03:33:12;;;;;;;0.20;0.20;;;19.30;90.90;;;;;;5075570;28;20028;-72
2022/06/25 03:35:37;;;;;;;0.20;0.20;;;19.30;90.90;;;;;;5094734;28;20032;-72
2022/06/25 03:38:03;;;;;;;0.30;0.30;;;19.30;90.90;;;;;;5094780;28;20036;-72
2022/06/25 03:40:29;;;;;;;0.10;0.10;;;19.30;90.90;;;;;;5076178;28;20028;-72
2022/06/25 03:42:55;;;;;;;0.20;0.20;;;19.30;91.00;;;;;;5094836;28;20051;-72
2022/06/25 03:45:20;;;;;;;0.40;0.20;;;19.30;91.10;;;;;;5094268;28;20048;-72
2022/06/25 03:47:50;;;;;;;0.20;0.20;;;19.20;91.20;;;;;;5094665;28;20032;-72
2022/06/25 03:50:17;;;;;;;0.30;0.30;;;19.20;91.60;;;;;;5078013;28;20093;-72
2022/06/25 03:52:43;;;;;;;0.17;0.17;;;19.20;92.40;;;;;;5087435;28;20039;-73
2022/06/25 03:55:09;;;;;;;0.20;0.20;;;19.10;93.10;;;;;;5094645;28;20077;-72
2022/06/25 03:57:35;;;;;;;0.20;0.20;;;19.10;94.10;;;;;;5093962;28;20036;-73
2022/06/25 04:00:02;;;;;;;0.32;0.32;;;19.00;94.60;;;;;;5094287;28;20102;-73
2022/06/25 04:02:28;;;;;;;0.22;0.22;;;19.00;95.30;;;;;;5093980;28;20028;-73
2022/06/25 04:04:53;;;;;;;0.20;0.20;;;18.90;96.00;;;;;;5094258;28;20119;-73
2022/06/25 04:07:19;;;;;;;0.20;0.20;;;18.80;96.70;;;;;;5093983;28;20161;-73
2022/06/25 04:09:45;;;;;;;0.20;0.20;;;18.70;97.10;;;;;;5094577;28;20028;-73
2022/06/25 04:12:11;;;;;;;0.30;0.30;;;18.70;97.70;;;;;;5093807;28;20028;-73
2022/06/25 04:14:38;;;;;;;0.20;0.20;;;18.60;98.40;;;;;;5076323;28;20016;-73
2022/06/25 04:17:04;;;;;;;0.20;0.20;;;18.60;98.90;;;;;;5093904;28;20032;-73
2022/06/25 04:19:29;;;;;;;0.13;0.13;;;18.50;99.50;;;;;;5093366;28;20020;-73
2022/06/25 04:21:55;;;;;;;0.65;0.35;;;18.40;99.90;;;;;;5094027;28;20034;-74
2022/06/25 04:24:20;;;;;;;0.25;0.25;;;18.30;99.90;;;;;;5093392;28;20056;-73
2022/06/25 04:26:46;;;;;;;0.43;0.30;;;18.30;99.90;;;;;;5094244;28;20512;-73
2022/06/25 04:29:12;;;;;;;0.30;0.30;;;18.20;99.90;;;;;;5093747;28;20028;-73
2022/06/25 04:31:38;;;;;;;0.20;0.20;;;18.20;99.90;;;;;;5093007;28;20024;-73
2022/06/25 04:34:05;;;;;;;0.30;0.30;;;18.20;99.90;;;;;;5093686;28;20046;-73
2022/06/25 04:36:30;;;;;;;0.30;0.30;;;18.10;99.90;;;;;;5093132;28;20028;-73
2022/06/25 04:38:56;;;;;;;0.57;0.28;;;18.10;99.90;;;;;;5093551;28;20034;-73
2022/06/25 04:41:22;;;;;;;0.17;0.17;;;18.10;99.90;;;;;;5093199;28;20052;-72
2022/06/25 04:43:49;;;;;;;0.20;0.20;;;18.00;99.90;;;;;;5093680;28;20024;-73
2022/06/25 04:46:15;;;;;;;0.20;0.20;;;18.00;99.90;;;;;;5093213;28;20044;-72
2022/06/25 04:48:40;;;;;;;0.20;0.20;;;17.90;99.90;;;;;;5093035;28;20028;-73
2022/06/25 04:51:06;;;;;;;0.15;0.10;;;17.90;99.90;;;;;;5093002;28;20028;-73
2022/06/25 04:53:33;;;;;;;0.32;0.10;;;17.90;99.90;;;;;;5092832;28;20060;-72
2022/06/25 04:55:58;;;;;;;0.20;0.20;;;17.90;99.90;;;;;;5093175;28;20107;-73
2022/06/25 04:58:24;;;;;;;0.13;0.13;;;17.90;99.90;;;;;;5092916;28;20107;-72
2022/06/25 05:00:50;;;;;;;0.17;0.17;;;17.90;99.90;;;;;;5091540;28;20035;-73
2022/06/25 05:03:17;;;;;;;0.22;0.22;;;17.90;99.90;;;;;;5091337;28;20111;-72
2022/06/25 05:05:43;;;;;;;0.30;0.30;;;17.90;99.90;;;;;;5090741;28;20492;-74
2022/06/25 05:08:08;;;;;;;0.30;0.30;;;17.90;99.90;;;;;;5091357;28;20024;-74
2022/06/25 05:10:34;;;;;;;0.88;0.25;;;17.90;99.90;;;;;;5090537;28;20020;-73
2022/06/25 05:13:12;;;;;;;0.20;0.20;;;17.90;99.90;;;;;;5092600;28;20484;-74
2022/06/25 05:15:41;;;;;;;0.20;0.20;;;17.90;99.90;;;;;;5092280;28;20034;-73
2022/06/25 05:18:08;;;;;;;0.20;0.20;;;17.90;99.90;;;;;;5086673;28;20118;-74
2022/06/25 05:20:44;;;;;;;0.30;0.30;;;17.90;99.90;;;;;;5077877;28;20031;-74
2022/06/25 05:23:10;;;;;;;0.30;0.30;;;17.90;99.90;;;;;;5090621;28;20028;-73
2022/06/25 05:25:36;;;;;;;0.32;0.30;;;17.90;99.90;;;;;;5089000;28;20079;-73
2022/06/25 05:28:02;;;;;;;0.80;0.40;;;17.90;99.90;;;;;;5072346;28;20417;-73
2022/06/25 05:30:28;;;;;;;0.35;0.35;;;17.90;99.90;;;;;;5071966;28;20031;-73
2022/06/25 05:32:54;;;;;;;0.22;0.22;;;17.90;99.90;;;;;;5072164;28;20021;-73
2022/06/25 05:35:20;;;;;;;0.30;0.30;;;17.90;99.90;;;;;;5084726;28;20032;-73
2022/06/25 05:37:45;;;;;;;0.30;0.30;;;17.90;99.90;;;;;;5092750;28;20051;-73
2022/06/25 05:40:11;;;;;;;0.32;0.30;;;17.90;99.90;;;;;;5092396;28;20024;-73
2022/06/25 05:42:37;;;;;;;0.40;0.30;;;18.00;99.90;;;;;;5092037;28;20470;-74
2022/06/25 05:45:04;;;;;;;0.20;0.20;;;18.00;99.90;;;;;;5092002;28;20028;-73
2022/06/25 05:47:29;;;;;;;0.20;0.20;;;18.00;99.90;;;;;;5088122;28;20024;-73
2022/06/25 05:49:55;;;;;;;0.60;0.47;;;17.90;99.90;;;;;;5092335;28;20311;-74
2022/06/25 05:52:22;;;;;;;1.23;0.40;;;17.90;99.90;;;;;;5079178;28;20025;-74
2022/06/25 05:54:48;;;;;;;2.92;0.30;;;17.90;99.90;;;;;;5071760;28;20408;-73
2022/06/25 05:57:14;;;;;;;0.40;0.40;;;17.80;99.90;;;;;;5071186;28;20032;-73
2022/06/25 05:59:39;;;;;;;0.40;0.35;;;17.80;99.90;;;;;;5071575;28;20025;-74
2022/06/25 06:02:06;;;;;;;0.32;0.32;;;17.80;99.90;;;;;;5071711;28;20107;-74
2022/06/25 06:04:32;;;;;;;0.40;0.40;;;17.80;99.90;;;;;;5071670;28;20039;-73
2022/06/25 06:06:59;;;;;;;0.45;0.45;;;17.80;99.90;;;;;;5071549;28;20032;-74
2022/06/25 06:09:27;;;;;;;0.30;0.30;;;17.80;99.90;;;;;;5071677;28;20025;-73
2022/06/25 06:11:54;;;;;;;0.40;0.40;;;17.80;99.90;;;;;;5072075;28;20436;-74
2022/06/25 06:14:20;;;;;;;0.30;0.30;;;17.80;99.90;;;;;;5053703;28;20056;-73
2022/06/25 06:16:46;;;;;;;0.45;0.45;;;17.80;99.90;;;;;;5071528;28;20040;-73
2022/06/25 06:19:12;;;;;;;0.20;0.20;;;17.90;99.90;;;;;;5071697;28;20029;-74
2022/06/25 06:21:37;;;;;;;0.32;0.32;;;17.90;99.90;;;;;;5071507;28;20074;-73
2022/06/25 06:24:03;;;;;;;0.30;0.30;;;17.90;99.90;;;;;;5071467;28;20077;-73
2022/06/25 06:26:29;;;;;;;1.52;0.40;;;17.90;99.90;;;;;;5071245;28;20093;-73
2022/06/25 06:28:54;;;;;;;0.50;0.50;;;17.90;99.90;;;;;;5071303;28;20033;-73
2022/06/25 06:31:20;;;;;;;0.57;0.47;;;17.90;99.90;;;;;;5071638;28;20056;-73
2022/06/25 06:33:45;;;;;;;0.43;0.40;;;17.90;99.90;;;;;;5071384;28;20157;-74
2022/06/25 06:36:12;;;;;;;0.30;0.30;;;18.00;99.90;;;;;;5071854;28;20024;-75
2022/06/25 06:38:38;;;;;;;0.20;0.20;;;18.00;99.90;;;;;;5071218;28;20039;-73
2022/06/25 06:41:04;;;;;;;0.30;0.30;;;18.00;99.90;;;;;;5071506;28;20071;-73
2022/06/25 06:43:29;;;;;;;0.73;0.40;;;18.00;99.90;;;;;;5071205;28;20053;-74
2022/06/25 06:45:55;;;;;;;0.30;0.30;;;18.00;99.90;;;;;;5071317;28;20130;-73
2022/06/25 06:48:21;;;;;;;0.40;0.40;;;18.00;99.90;;;;;;5071195;28;20082;-73
2022/06/25 06:50:46;;;;;;;0.32;0.32;;;18.00;99.90;;;;;;5070282;28;20021;-73
2022/06/25 06:53:12;;;;;;;0.20;0.20;;;18.10;99.90;;;;;;5071020;28;20036;-73
2022/06/25 06:55:37;;;;;;;0.88;0.25;;;18.10;99.90;;;;;;5070713;28;20078;-73
2022/06/25 06:58:03;;;;;;;0.20;0.20;;;18.10;99.90;;;;;;5070443;28;20028;-74
2022/06/25 07:00:29;;;;;;;0.55;0.38;;;18.10;99.90;;;;;;5070445;28;20422;-73
2022/06/25 07:02:54;;;;;;;0.40;0.35;;;18.20;99.90;;;;;;5071209;28;20097;-74
2022/06/25 07:05:20;;;;;;;1.23;0.30;;;18.20;99.90;;;;;;5071205;28;20417;-72
2022/06/25 07:07:47;;;;;;;0.32;0.32;;;18.20;99.90;;;;;;5081661;28;20028;-74
2022/06/25 07:10:14;;;;;;;0.40;0.40;;;18.30;99.90;;;;;;5076566;28;20035;-72
2022/06/25 07:12:40;;;;;;;1.25;0.60;;;18.30;99.90;;;;;;5094554;28;20365;-74
2022/06/25 07:15:06;;;;;;;0.40;0.40;;;18.40;99.90;;;;;;5087573;28;20023;-73
2022/06/25 07:17:31;;;;;;;0.40;0.40;;;18.40;99.90;;;;;;5074131;28;20042;-73
2022/06/25 07:19:58;;;;;;;0.40;0.40;;;18.50;99.90;;;;;;5074726;28;20024;-73
2022/06/25 07:22:23;;;;;;;0.30;0.30;;;18.60;99.90;;;;;;5056661;28;20028;-73
2022/06/25 07:24:51;;;;;;;0.32;0.32;;;18.60;99.90;;;;;;5091476;28;20020;-73
2022/06/25 07:27:17;;;;;;;0.40;0.40;;;18.70;99.90;;;;;;5095244;28;20380;-73
2022/06/25 07:29:43;;;;;;;0.40;0.40;;;18.70;99.90;;;;;;5094183;28;20024;-73
2022/06/25 07:32:09;;;;;;;0.47;0.43;;;18.70;99.90;;;;;;5094698;28;20108;-74
2022/06/25 07:34:35;;;;;;;0.32;0.32;;;18.80;99.90;;;;;;5094114;28;20060;-74
2022/06/25 07:37:01;;;;;;;0.50;0.50;;;18.90;99.90;;;;;;5094679;28;20491;-73
2022/06/25 07:39:27;;;;;;;0.38;0.38;;;18.90;99.90;;;;;;5094712;28;20024;-74
2022/06/25 07:41:53;;;;;;;0.40;0.40;;;19.00;99.90;;;;;;5076985;28;20453;-74
2022/06/25 07:44:19;;;;;;;0.22;0.22;;;19.10;99.90;;;;;;5074436;28;20108;-73
2022/06/25 07:46:44;;;;;;;0.80;0.80;;;19.10;99.90;;;;;;5073531;28;20473;-73
2022/06/25 07:49:10;;;;;;;0.70;0.52;;;19.10;99.90;;;;;;5076489;28;20024;-73
2022/06/25 07:54:20;;;;;;;0.60;0.60;;;19.20;99.90;;;;;;5091294;28;20078;-74
2022/06/25 07:56:46;;;;;;;0.52;0.40;;;19.30;99.90;;;;;;5093374;28;20460;-74
2022/06/25 07:59:11;;;;;;;0.60;0.60;;;19.40;99.90;;;;;;5094054;28;20020;-74
2022/06/25 08:01:37;;;;;;;0.40;0.40;;;19.40;99.90;;;;;;5093766;28;20024;-73
2022/06/25 08:04:03;;;;;;;0.70;0.40;;;19.40;99.90;;;;;;5093832;28;20078;-73
2022/06/25 08:06:28;;;;;;;0.55;0.55;;;19.50;99.90;;;;;;5093941;28;20024;-74
2022/06/25 08:08:54;;;;;;;0.30;0.30;;;19.50;99.90;;;;;;5094041;28;20039;-73
2022/06/25 08:11:20;;;;;;;0.40;0.40;;;19.50;99.90;;;;;;5093874;28;20020;-74
2022/06/25 08:13:46;;;;;;;0.45;0.40;;;19.60;99.90;;;;;;5093520;28;20054;-74
2022/06/25 08:16:11;;;;;;;0.60;0.43;;;19.60;99.90;;;;;;5074832;28;20082;-74
2022/06/25 08:18:38;;;;;;;1.45;0.60;;;19.70;99.90;;;;;;5072965;28;20461;-74
2022/06/25 08:21:05;;;;;;;0.65;0.60;;;19.90;99.90;;;;;;5073317;28;20021;-74
2022/06/25 08:23:30;;;;;;;0.73;0.50;;;20.00;99.90;;;;;;5073213;28;20035;-74
2022/06/25 08:25:56;;;;;;;0.70;0.55;;;20.10;99.90;;;;;;5073223;28;20033;-74
2022/06/25 08:28:23;;;;;;;0.70;0.70;;;20.20;99.90;;;;;;5073422;28;20043;-73
2022/06/25 08:30:49;;;;;;;0.70;0.60;;;20.20;99.80;;;;;;5072930;28;20029;-73
2022/06/25 08:33:15;;;;;;;1.17;0.50;;;20.20;99.10;;;;;;5073355;28;20377;-74
2022/06/25 08:35:41;;;;;;;0.50;0.50;;;20.20;97.90;;;;;;5072869;28;20024;-73
2022/06/25 08:38:06;;;;;;;0.63;0.50;;;20.30;97.30;;;;;;5072589;28;20068;-74
2022/06/25 08:40:32;;;;;;;0.60;0.60;;;20.30;98.00;;;;;;5072623;28;20024;-73
2022/06/25 08:42:59;;;;;;;1.23;0.60;;;20.30;98.20;;;;;;5073152;28;20036;-73
2022/06/25 08:45:25;;;;;;;0.43;0.43;;;20.30;98.30;;;;;;5073002;28;20123;-74
2022/06/25 08:47:52;;;;;;;1.30;0.80;;;20.30;98.40;;;;;;5072534;28;20123;-73
2022/06/25 08:50:21;;;;;;;0.73;0.65;;;20.30;98.60;;;;;;5072943;28;20519;-73
2022/06/25 08:52:48;;;;;;;0.63;0.47;;;20.30;98.40;;;;;;5072520;28;20082;-73
2022/06/25 08:55:19;;;;;;;0.52;0.50;;;20.20;98.10;;;;;;5073043;28;20186;-74
2022/06/25 08:57:45;;;;;;;0.73;0.50;;;20.20;98.30;;;;;;5072359;28;20093;-73
2022/06/25 09:00:11;;;;;;;1.83;0.52;;;20.20;97.60;;;;;;5072629;28;20382;-73
2022/06/25 09:02:39;;;;;;;0.50;0.50;;;20.20;97.60;;;;;;5072412;28;20025;-74
2022/06/25 09:05:06;;;;;;;0.40;0.40;;;20.10;98.00;;;;;;5072769;28;20354;-74
2022/06/25 09:07:32;;;;;;;1.45;0.57;;;20.20;98.20;;;;;;5072707;28;20028;-74
2022/06/25 09:09:58;;;;;;;0.50;0.50;;;20.10;97.50;;;;;;5072628;28;20020;-74
2022/06/25 09:12:24;;;;;;;1.05;0.52;;;20.20;97.80;;;;;;5072714;28;20024;-73
2022/06/25 09:14:50;;;;;;;0.50;0.50;;;20.20;98.00;;;;;;5072165;28;20030;-74
2022/06/25 09:17:16;;;;;;;1.55;0.50;;;20.20;97.80;;;;;;5072701;28;20052;-73
2022/06/25 09:19:47;;;;;;;0.60;0.60;;;20.20;98.20;;;;;;5072429;28;20412;-73
2022/06/25 09:22:18;;;;;;;0.75;0.60;;;20.20;98.10;;;;;;5072690;28;20071;-73
2022/06/25 09:24:46;;;;;;;0.52;0.52;;;20.20;98.30;;;;;;5071655;28;20461;-73
2022/06/25 09:27:13;;;;;;;0.88;0.50;;;20.30;98.40;;;;;;5072467;28;20104;-73
2022/06/25 09:29:45;;;;;;;0.50;0.40;;;20.30;97.90;;;;;;5072035;28;20032;-72
2022/06/25 09:32:11;;;;;;;0.30;0.30;;;20.30;97.40;;;;;;5071813;28;20358;-73
2022/06/25 09:34:38;;;;;;;0.60;0.60;;;20.30;96.80;;;;;;5071946;28;20063;-73
2022/06/25 09:37:24;;;;;;;0.57;0.47;;;20.30;96.00;;;;;;5072106;28;20037;-73
2022/06/25 09:39:51;;;;;;;0.40;0.40;;;20.30;95.70;;;;;;5071710;28;20032;-73
2022/06/25 09:42:26;;;;;;;1.00;0.68;;;20.30;95.70;;;;;;5074898;28;20164;-74
2022/06/25 09:45:10;;;;;;;0.40;0.40;;;20.30;95.50;;;;;;5053883;28;20021;-73
2022/06/25 09:47:43;;;;;;;0.50;0.50;;;20.20;94.90;;;;;;5071676;28;20048;-73
2022/06/25 09:50:10;;;;;;;0.40;0.40;;;20.20;94.70;;;;;;5072432;28;20036;-73
2022/06/25 09:52:38;;;;;;;0.70;0.52;;;20.20;95.10;;;;;;5071878;28;20025;-73
2022/06/25 09:55:05;;;;;;;2.78;0.60;;;20.20;94.70;;;;;;5072443;28;20024;-74
2022/06/25 09:57:31;;;;;;;0.60;0.60;;;20.20;94.60;;;;;;5082990;28;20543;-73
2022/06/25 09:59:59;;;;;;;1.10;0.57;;;20.20;94.70;;;;;;5091897;28;20158;-73
2022/06/25 10:02:29;;;;;;;0.60;0.60;;;20.20;95.50;;;;;;5092170;28;20111;-72
2022/06/25 10:05:00;;;;;;;0.85;0.60;;;20.20;95.60;;;;;;5092066;28;20020;-74
2022/06/25 10:07:59;;;;;;;;;;;20.30;95.30;;;;;;5092750;28;20035;-74
2022/06/25 10:10:20;;;;;;;0.52;0.45;;;20.30;95.10;;;;;;5091976;28;20367;-73
2022/06/25 10:12:50;;;;;;;0.60;0.60;;;20.30;95.30;;;;;;5092043;28;20464;-74
2022/06/25 10:15:20;;;;;;;0.75;0.40;;;20.30;95.10;;;;;;5092230;28;20038;-73
2022/06/25 10:17:47;;;;;;;0.60;0.60;;;20.30;95.10;;;;;;5091529;28;20518;-73
2022/06/25 10:20:15;;;;;;;3.33;0.70;;;20.30;95.10;;;;;;5091895;28;20047;-73
2022/06/25 10:22:41;;;;;;;0.85;0.60;;;20.30;95.40;;;;;;5091704;28;20368;-73
2022/06/25 10:25:13;;;;;;;0.57;0.57;;;20.40;94.50;;;;;;5092340;28;20156;-73
2022/06/25 10:27:44;;;;;;;0.50;0.50;;;20.40;94.50;;;;;;5091800;28;20127;-73
2022/06/25 10:30:11;;;;;;;1.10;0.50;;;20.40;94.60;;;;;;5091502;28;20070;-73
2022/06/25 10:32:48;;;;;;;0.50;0.50;;;20.40;94.80;;;;;;5092186;28;20032;-74
2022/06/25 10:35:34;;;;;;;0.50;0.40;;;20.50;94.80;;;;;;5092165;28;20032;-73
2022/06/25 10:38:07;;;;;;;0.40;0.40;;;20.50;94.20;;;;;;5091595;28;20117;-73
2022/06/25 10:40:47;;;;;;;0.82;0.45;;;20.50;94.50;;;;;;5092236;28;20417;-73
2022/06/25 10:43:49;;;;;;;0.50;0.50;;;20.50;94.40;;;;;;5093937;28;20028;-72
2022/06/25 10:46:36;;;;;;;0.63;0.63;;;20.60;94.70;;;;;;5064184;28;20055;-73
2022/06/25 10:49:13;;;;;;;0.40;0.30;;;20.50;94.80;;;;;;5095523;28;20030;-73
2022/06/25 10:51:38;;;;;;;0.38;0.38;;;20.50;94.40;;;;;;5095826;28;20118;-74
2022/06/25 10:54:06;;;;;;;0.57;0.50;;;20.60;94.60;;;;;;5095427;28;20465;-74
2022/06/25 10:56:44;;;;;;;0.80;0.50;;;20.60;94.10;;;;;;5095576;28;20164;-74
2022/06/25 10:59:14;;;;;;;0.30;0.30;;;20.60;93.80;;;;;;5095841;28;20115;-73
2022/06/25 11:01:39;;;;;;;0.75;0.40;;;20.60;93.60;;;;;;5089758;28;20109;-71
2022/06/25 11:04:07;;;;;;;0.40;0.40;;;20.60;93.70;;;;;;5079969;28;20480;-71
2022/06/25 11:06:39;;;;;;;0.50;0.50;;;20.60;93.80;;;;;;5093032;28;20351;-71
2022/06/25 11:09:15;;;;;;;0.30;0.30;;;20.60;93.50;;;;;;5091494;28;20117;-71
2022/06/25 11:11:43;;;;;;;1.83;0.70;;;20.60;93.10;;;;;;5075142;28;20016;-70
2022/06/25 11:14:21;;;;;;;0.55;0.32;;;20.60;93.10;;;;;;5074958;28;20082;-71
2022/06/25 11:16:47;;;;;;;0.60;0.60;;;20.70;93.20;;;;;;5074476;28;20056;-70
2022/06/25 11:19:13;;;;;;;0.50;0.50;;;20.80;93.50;;;;;;5091609;28;20456;-71
2022/06/25 11:21:42;;;;;;;0.47;0.45;;;20.90;93.10;;;;;;5095446;28;20031;-71
2022/06/25 11:24:28;;;;;;;0.50;0.50;;;20.90;93.10;;;;;;5094964;28;20480;-71
2022/06/25 11:29:49;;;;;;;0.88;0.60;;;21.00;92.40;;;;;;5094375;28;20034;-71
2022/06/25 11:32:28;;;;;;;1.25;0.50;;;21.10;92.40;;;;;;5094887;28;20039;-70
2022/06/25 11:34:59;;;;;;;0.70;0.43;;;21.10;92.30;;;;;;5089118;28;20032;-70
2022/06/25 11:37:25;;;;;;;0.40;0.35;;;21.20;92.30;;;;;;5074670;28;20032;-71
2022/06/25 11:39:51;;;;;;;1.50;0.60;;;21.20;92.10;;;;;;5073911;28;20057;-71
2022/06/25 11:42:17;;;;;;;0.40;0.40;;;21.30;91.60;;;;;;5074167;28;20075;-71
2022/06/25 11:44:47;;;;;;;0.50;0.43;;;21.40;91.40;;;;;;5076821;28;20035;-71
2022/06/25 11:47:20;;;;;;;2.47;0.47;;;21.50;91.30;;;;;;5056327;28;20049;-71
2022/06/25 11:49:47;;;;;;;0.90;0.55;;;21.60;91.10;;;;;;5074032;28;20104;-71
2022/06/25 11:52:14;;;;;;;0.60;0.60;;;21.70;90.40;;;;;;5074317;28;20032;-70
2022/06/25 11:54:41;;;;;;;1.73;0.60;;;21.80;90.40;;;;;;5073700;28;20025;-71
2022/06/25 11:57:19;;;;;;;0.85;0.65;;;21.90;90.20;;;;;;5073489;28;20037;-71
2022/06/25 11:59:45;;;;;;;0.50;0.50;;;22.00;90.00;;;;;;5072585;28;20116;-71
2022/06/25 12:02:11;;;;;;;0.50;0.50;;;22.00;88.30;;;;;;5073549;28;20111;-71
2022/06/25 12:04:49;;;;;;;0.40;0.40;;;22.10;88.10;;;;;;5077436;28;20077;-70
2022/06/25 12:07:17;;;;;;;0.52;0.52;;;22.10;87.30;;;;;;5073627;28;20056;-70
2022/06/25 12:09:43;;;;;;;0.80;0.45;;;22.20;88.10;;;;;;5073216;28;20103;-70
2022/06/25 12:12:09;;;;;;;0.40;0.40;;;22.20;84.60;;;;;;5072976;28;20025;-70
2022/06/25 12:14:36;;;;;;;0.73;0.52;;;22.20;83.70;;;;;;5073655;28;20107;-70
2022/06/25 12:17:05;;;;;;;0.47;0.43;;;22.20;83.90;;;;;;5073039;28;20051;-71
2022/06/25 12:19:51;;;;;;;0.40;0.40;;;22.30;84.10;;;;;;5073495;28;20016;-71
2022/06/25 12:22:30;;;;;;;0.73;0.50;;;22.30;83.30;;;;;;5073387;28;20473;-71
2022/06/25 12:24:59;;;;;;;0.60;0.52;;;22.30;83.70;;;;;;5072955;28;20119;-70
2022/06/25 12:27:25;;;;;;;0.63;0.63;;;22.30;84.30;;;;;;5073473;28;20116;-70
2022/06/25 12:29:54;;;;;;;0.52;0.50;;;22.30;83.00;;;;;;5072975;28;20081;-70
2022/06/25 12:32:34;;;;;;;0.63;0.63;;;22.30;82.70;;;;;;5073310;28;20025;-71
2022/06/25 12:34:59;;;;;;;0.70;0.52;;;22.40;82.00;;;;;;5072730;28;20431;-70
2022/06/25 12:37:29;;;;;;;0.45;0.45;;;22.40;81.40;;;;;;5072828;28;20029;-70
2022/06/25 12:39:59;;;;;;;0.97;0.57;;;22.40;81.00;;;;;;5072877;28;20024;-69
2022/06/25 12:42:28;;;;;;;0.60;0.60;;;22.40;81.00;;;;;;5072829;28;20453;-70
2022/06/25 12:44:55;;;;;;;0.88;0.70;;;22.40;81.70;;;;;;5072489;28;20028;-70
2022/06/25 12:47:21;;;;;;;0.95;0.65;;;22.40;81.80;;;;;;5073023;28;20049;-70
2022/06/25 12:49:56;;;;;;;0.70;0.60;;;22.40;81.80;;;;;;5072804;28;20035;-70
2022/06/25 12:52:39;;;;;;;0.60;0.60;;;22.40;81.80;;;;;;5072852;28;20111;-71
2022/06/25 12:55:06;;;;;;;0.50;0.50;;;22.30;82.00;;;;;;5072533;28;20020;-71
2022/06/25 12:57:37;;;;;;;1.50;0.60;;;22.30;82.50;;;;;;5072824;28;20426;-70
2022/06/25 13:00:15;;;;;;;;;;;22.40;82.70;;;;;;5072846;28;20024;-71
2022/06/25 13:02:41;;;;;;;0.73;0.70;;;22.40;84.30;;;;;;5072429;28;19911;-70
2022/06/25 13:05:07;;;;;;;0.60;0.60;;;22.50;85.00;;;;;;5071815;28;20029;-70